Dinant, Belgium
Current Conditions -  °F | °C
As of 1:55 PM on Saturday 25 Oct 2014 (Local Time) from EBFS Reporting Station
Drizzle Drizzle  
Wind Chill: 11°   Ceiling: 800
Heat Index: 11°   Visibility: 1.8mi
Dew Point: 11°   Wind: 7mph
Humidity: 100%   Direction: 230°SW
Pressure: 30.12"   Gusts: NA
Location:  50.26°N, 4.91°E
Report Text: EBFS 251155Z 23006KT 3000 -DZ FEW002 SCT005 BKN008 11/11 Q1020 YLO
Loading
Personal Weather Stations






























Interactive Weather Map
Tropical Storm Tracking
New forecast layout! Learn more

10-Day Weather Forecast

Advertisements
Track Severe Weather on mobile